createdAt,value
2023-01-13T00:01:30.271Z,95916.23
2023-01-13T00:03:58.624Z,95916.88
2023-01-13T00:06:28.016Z,95918.89
2023-01-13T00:08:56.632Z,95920.91
2023-01-13T00:11:26.465Z,95922.67
2023-01-13T00:13:55.043Z,95928.60
2023-01-13T00:16:23.416Z,95926.00
2023-01-13T00:18:51.873Z,95930.66
2023-01-13T00:21:24.805Z,95932.21
2023-01-13T00:23:54.779Z,95939.99
2023-01-13T00:26:25.822Z,95941.61
2023-01-13T00:28:58.837Z,95943.95
2023-01-13T00:31:28.945Z,95940.19
2023-01-13T00:33:58.416Z,95942.02
2023-01-13T00:36:27.258Z,95942.91
2023-01-13T00:38:55.619Z,95946.73
2023-01-13T00:41:26.721Z,95948.80
2023-01-13T00:43:55.160Z,95943.04
2023-01-13T00:46:23.771Z,95941.17
2023-01-13T00:48:52.409Z,95940.37
2023-01-13T00:51:21.881Z,95942.03
2023-01-13T00:53:52.240Z,95941.26
2023-01-13T00:56:38.988Z,95944.30
2023-01-13T00:59:11.968Z,95944.17
2023-01-13T01:01:41.679Z,95947.89
2023-01-13T01:04:10.135Z,95946.48
2023-01-13T01:06:38.660Z,95949.98
2023-01-13T01:09:06.712Z,95947.36
2023-01-13T01:11:35.380Z,95950.59
2023-01-13T01:14:04.697Z,95951.21
2023-01-13T01:16:34.779Z,95947.59
2023-01-13T01:19:04.148Z,95946.54
2023-01-13T01:21:33.113Z,95945.09
2023-01-13T01:24:03.936Z,95940.94
2023-01-13T01:26:32.970Z,95935.08
2023-01-13T01:29:02.500Z,95932.17
2023-01-13T01:31:33.129Z,95931.31
2023-01-13T01:34:01.926Z,95927.11
2023-01-13T01:36:30.658Z,95931.25
2023-01-13T01:39:00.226Z,95928.66
2023-01-13T01:41:32.260Z,95925.80
2023-01-13T01:44:07.301Z,95924.54
2023-01-13T01:46:44.474Z,95922.98
2023-01-13T01:49:32.969Z,95919.50
2023-01-13T01:52:14.915Z,95920.26
2023-01-13T01:54:48.193Z,95918.70
2023-01-13T01:57:23.859Z,95919.04
2023-01-13T01:59:52.872Z,95922.73
2023-01-13T02:02:22.532Z,95918.02
2023-01-13T02:04:53.684Z,95915.88
2023-01-13T02:07:26.456Z,95913.52
2023-01-13T02:09:57.993Z,95909.32
2023-01-13T02:12:30.112Z,95912.27
2023-01-13T02:15:09.144Z,95912.06
2023-01-13T02:18:05.175Z,95906.66
2023-01-13T02:21:12.980Z,95908.97
2023-01-13T02:24:39.035Z,95910.66
2023-01-13T02:27:22.535Z,95912.24
2023-01-13T02:30:09.826Z,95916.29
2023-01-13T02:33:08.068Z,95917.90
2023-01-13T02:35:42.696Z,95913.68
2023-01-13T02:38:14.582Z,95912.86
2023-01-13T02:40:48.487Z,95913.87
2023-01-13T02:43:47.854Z,95913.14
2023-01-13T02:46:24.231Z,95912.64
2023-01-13T02:48:56.210Z,95916.64
2023-01-13T02:51:29.134Z,95917.88
2023-01-13T02:54:02.887Z,95919.42
2023-01-13T02:56:34.753Z,95915.08
2023-01-13T02:59:03.974Z,95911.84
2023-01-13T03:01:32.343Z,95916.90
2023-01-13T03:04:12.380Z,95913.91
2023-01-13T03:07:05.347Z,95911.18
2023-01-13T03:09:40.581Z,95908.52
2023-01-13T03:12:29.553Z,95906.70
2023-01-13T03:15:09.636Z,95908.78
2023-01-13T03:17:43.204Z,95912.80
2023-01-13T03:20:27.579Z,95911.19
2023-01-13T03:23:17.765Z,95911.24
2023-01-13T03:26:10.540Z,95911.25
2023-01-13T03:28:49.540Z,95908.73
2023-01-13T03:31:23.896Z,95906.10
2023-01-13T03:34:02.173Z,95910.30
2023-01-13T03:36:34.200Z,95911.58
2023-01-13T03:39:10.229Z,95914.64
2023-01-13T03:41:57.526Z,95916.71
2023-01-13T03:45:03.911Z,95912.27
2023-01-13T03:47:51.527Z,95914.86
2023-01-13T03:50:22.920Z,95916.45
2023-01-13T03:53:09.496Z,95916.80
2023-01-13T03:55:51.479Z,95917.94
2023-01-13T03:58:43.419Z,95921.10
2023-01-13T04:01:15.402Z,95916.77
2023-01-13T04:04:03.261Z,95919.90
2023-01-13T04:06:38.574Z,95918.16
2023-01-13T04:09:47.695Z,95918.37
2023-01-13T04:13:01.345Z,95922.09
2023-01-13T04:15:43.067Z,95923.55
2023-01-13T04:18:16.054Z,95919.45
2023-01-13T04:20:46.804Z,95919.92
2023-01-13T04:23:16.793Z,95924.43
2023-01-13T04:25:47.338Z,95929.33
2023-01-13T04:28:16.431Z,95925.97
2023-01-13T04:30:45.759Z,95924.80
2023-01-13T04:33:15.738Z,95927.54
2023-01-13T04:35:45.335Z,95925.27
2023-01-13T04:38:17.098Z,95928.54
2023-01-13T04:40:45.608Z,95928.45
2023-01-13T04:43:15.915Z,95929.73
2023-01-13T04:45:45.230Z,95923.52
2023-01-13T04:48:13.815Z,95924.73
2023-01-13T04:50:42.488Z,95922.55
2023-01-13T04:53:11.193Z,95927.32
2023-01-13T04:55:39.867Z,95926.81
2023-01-13T04:58:10.555Z,95928.91
2023-01-13T05:00:39.184Z,95936.09
2023-01-13T05:03:07.780Z,95934.17
2023-01-13T05:05:36.181Z,95932.80
2023-01-13T05:08:05.452Z,95933.58
2023-01-13T05:10:33.833Z,95933.92
2023-01-13T05:13:21.063Z,95932.52
2023-01-13T05:16:11.182Z,95935.21
2023-01-13T05:18:39.874Z,95935.64
2023-01-13T05:21:28.193Z,95932.84
2023-01-13T05:24:15.300Z,95931.42
2023-01-13T05:26:43.438Z,95930.21
2023-01-13T05:29:11.880Z,95929.92
2023-01-13T05:31:40.021Z,95933.34
2023-01-13T05:34:08.928Z,95938.85
2023-01-13T05:36:40.429Z,95941.87
2023-01-13T05:39:08.766Z,95945.73
2023-01-13T05:41:55.897Z,95947.35
2023-01-13T05:44:24.157Z,95944.92
2023-01-13T05:46:52.947Z,95944.37
2023-01-13T05:49:21.347Z,95943.70
2023-01-13T05:51:49.602Z,95947.96
2023-01-13T05:54:17.718Z,95951.68
2023-01-13T05:56:45.849Z,95949.66
2023-01-13T05:59:14.542Z,95944.89
2023-01-13T06:01:43.057Z,95946.67
2023-01-13T06:04:11.342Z,95948.95
2023-01-13T06:06:40.417Z,95946.09
2023-01-13T06:09:08.689Z,95948.04
2023-01-13T06:11:37.067Z,95952.36
2023-01-13T06:14:05.574Z,95959.29
2023-01-13T06:16:34.618Z,95958.52
2023-01-13T06:19:03.865Z,95958.52
2023-01-13T06:21:33.362Z,95961.46
2023-01-13T06:24:02.144Z,95961.04
2023-01-13T06:26:36.374Z,95959.54
2023-01-13T06:29:06.495Z,95962.77
2023-01-13T06:31:39.056Z,95966.84
2023-01-13T06:34:14.557Z,95967.73
2023-01-13T06:36:48.658Z,95965.39
2023-01-13T06:39:20.583Z,95965.21
2023-01-13T06:42:13.357Z,95967.16
2023-01-13T06:44:42.964Z,95965.41
2023-01-13T06:47:11.872Z,95962.13
2023-01-13T06:49:41.197Z,95968.12
2023-01-13T06:52:09.652Z,95973.46
2023-01-13T06:54:38.530Z,95975.03
2023-01-13T06:57:07.626Z,95975.61
2023-01-13T06:59:35.995Z,95972.15
2023-01-13T07:02:04.877Z,95973.27
2023-01-13T07:04:33.187Z,95971.88
2023-01-13T07:07:02.281Z,95969.73
2023-01-13T07:09:30.884Z,95962.56
2023-01-13T07:11:59.128Z,95963.19
2023-01-13T07:14:46.384Z,95953.44
2023-01-13T07:17:15.367Z,95948.83
2023-01-13T07:19:44.138Z,95952.55
2023-01-13T07:22:32.309Z,95948.61
2023-01-13T07:25:15.106Z,95949.30
2023-01-13T07:27:43.797Z,95946.08
2023-01-13T07:30:13.196Z,95946.05
2023-01-13T07:32:41.786Z,95939.70
2023-01-13T07:35:10.071Z,95937.77
2023-01-13T07:37:39.695Z,95934.67
2023-01-13T07:40:08.868Z,95941.01
2023-01-13T07:42:57.733Z,95932.33
2023-01-13T07:45:27.064Z,95937.30
2023-01-13T07:47:55.427Z,95939.77
2023-01-13T07:50:24.105Z,95939.93
2023-01-13T07:52:52.592Z,95939.91
2023-01-13T07:55:20.849Z,95945.80
2023-01-13T07:57:49.520Z,95943.45
2023-01-13T08:00:18.577Z,95943.25
2023-01-13T08:02:47.076Z,95942.23
2023-01-13T08:05:16.767Z,95944.36
2023-01-13T08:07:45.244Z,95947.63
2023-01-13T08:10:13.436Z,95949.65
2023-01-13T08:13:00.822Z,95951.20
2023-01-13T08:15:30.143Z,95951.08
2023-01-13T08:17:59.634Z,95954.29
2023-01-13T08:20:28.494Z,95952.05
2023-01-13T08:23:01.128Z,95948.94
2023-01-13T08:25:30.333Z,95947.45
2023-01-13T08:28:00.547Z,95943.34
2023-01-13T08:30:30.431Z,95942.36
2023-01-13T08:32:59.151Z,95944.95
2023-01-13T08:35:27.413Z,95944.52
2023-01-13T08:37:56.089Z,95946.73
2023-01-13T08:40:24.856Z,95946.66
2023-01-13T08:42:56.250Z,95944.91
2023-01-13T08:45:25.557Z,95949.62
2023-01-13T08:47:53.936Z,95948.24
2023-01-13T08:50:22.313Z,95944.58
2023-01-13T08:52:50.738Z,95937.65
2023-01-13T08:55:19.589Z,95937.40
2023-01-13T08:57:48.992Z,95938.69
2023-01-13T09:00:17.957Z,95937.48
2023-01-13T09:02:46.125Z,95938.01
2023-01-13T09:05:16.906Z,95935.20
2023-01-13T09:07:46.038Z,95938.48
2023-01-13T09:10:14.410Z,95935.19
2023-01-13T09:13:01.701Z,95929.48
2023-01-13T09:15:31.238Z,95930.15
2023-01-13T09:17:59.997Z,95929.66
2023-01-13T09:20:28.323Z,95924.32
2023-01-13T09:22:57.996Z,95919.65
2023-01-13T09:25:26.268Z,95913.68
2023-01-13T09:27:54.736Z,95913.20
2023-01-13T09:30:23.092Z,95915.59
2023-01-13T09:33:11.715Z,95917.17
2023-01-13T09:35:40.165Z,95913.54
2023-01-13T09:38:08.478Z,95913.76
2023-01-13T09:40:40.325Z,95911.75
2023-01-13T09:43:42.090Z,95911.02
2023-01-13T09:46:40.419Z,95907.79
2023-01-13T09:49:21.025Z,95901.77
2023-01-13T09:52:15.613Z,95899.62
2023-01-13T09:55:02.458Z,95900.44
2023-01-13T09:57:38.165Z,95898.39
2023-01-13T10:00:16.933Z,95902.39
2023-01-13T10:03:13.170Z,95908.73
2023-01-13T10:05:49.564Z,95909.17
2023-01-13T10:08:26.324Z,95907.23
2023-01-13T10:11:23.958Z,95904.46
2023-01-13T10:13:58.497Z,95902.85
2023-01-13T10:16:49.136Z,95904.67
2023-01-13T10:19:19.526Z,95908.35
2023-01-13T10:22:11.177Z,95903.80
2023-01-13T10:25:01.653Z,95903.95
2023-01-13T10:27:35.809Z,95898.39
2023-01-13T10:30:12.644Z,95893.42
2023-01-13T10:32:43.889Z,95889.37
2023-01-13T10:35:12.678Z,95892.46
2023-01-13T10:37:56.519Z,95888.64
2023-01-13T10:40:26.048Z,95891.54
2023-01-13T10:43:06.755Z,95889.05
2023-01-13T10:45:35.175Z,95891.80
2023-01-13T10:48:11.009Z,95892.86
2023-01-13T10:50:40.881Z,95888.23
2023-01-13T10:53:44.864Z,95894.30
2023-01-13T10:56:18.892Z,95890.27
2023-01-13T10:58:47.974Z,95887.60
2023-01-13T11:01:28.413Z,95876.21
2023-01-13T11:03:57.239Z,95869.31
2023-01-13T11:06:29.736Z,95866.40
2023-01-13T11:08:58.902Z,95862.35
2023-01-13T11:11:43.849Z,95857.85
2023-01-13T11:14:33.445Z,95858.38
2023-01-13T11:17:45.720Z,95858.10
2023-01-13T11:20:20.022Z,95856.04
2023-01-13T11:22:52.990Z,95852.21
2023-01-13T11:25:41.927Z,95848.77
2023-01-13T11:28:38.574Z,95845.45
2023-01-13T11:31:15.889Z,95839.63
2023-01-13T11:33:59.606Z,95841.73
2023-01-13T11:36:39.972Z,95844.66
2023-01-13T11:39:32.915Z,95836.33
2023-01-13T11:42:22.098Z,95830.48
2023-01-13T11:45:17.099Z,95827.81
2023-01-13T11:47:51.336Z,95827.49
2023-01-13T11:50:41.723Z,95821.48
2023-01-13T11:53:12.673Z,95822.02
2023-01-13T11:55:50.487Z,95818.61
2023-01-13T11:58:50.206Z,95812.53
2023-01-13T12:01:34.754Z,95814.26
2023-01-13T12:04:44.689Z,95812.10
2023-01-13T12:07:20.280Z,95811.90
2023-01-13T12:10:31.419Z,95811.81
2023-01-13T12:13:11.279Z,95809.51
2023-01-13T12:15:54.607Z,95806.42
2023-01-13T12:18:51.665Z,95809.39
2023-01-13T12:21:37.061Z,95802.17
2023-01-13T12:24:17.728Z,95806.07
2023-01-13T12:26:55.179Z,95804.98
2023-01-13T12:29:33.238Z,95801.69
2023-01-13T12:32:10.511Z,95801.29
2023-01-13T12:34:52.708Z,95798.37
2023-01-13T12:38:01.943Z,95797.63
2023-01-13T12:40:49.977Z,95793.20
2023-01-13T12:43:42.363Z,95796.52
2023-01-13T12:46:21.473Z,95791.90
2023-01-13T12:48:59.595Z,95795.13
2023-01-13T12:51:57.431Z,95802.42
2023-01-13T12:54:41.289Z,95798.37
2023-01-13T12:57:26.559Z,95796.81
2023-01-13T13:00:03.954Z,95795.44
2023-01-13T13:02:37.735Z,95802.61
2023-01-13T13:05:15.672Z,95800.81
2023-01-13T13:07:52.751Z,95803.60
2023-01-13T13:10:30.452Z,95804.47
2023-01-13T13:13:19.659Z,95805.27
2023-01-13T13:15:50.464Z,95810.98
2023-01-13T13:18:19.885Z,95807.16
2023-01-13T13:20:54.503Z,95804.44
2023-01-13T13:23:38.295Z,95801.48
2023-01-13T13:26:22.085Z,95802.45
2023-01-13T13:28:53.340Z,95805.92
2023-01-13T13:31:34.211Z,95805.85
2023-01-13T13:34:17.215Z,95805.51
2023-01-13T13:37:00.802Z,95804.41
2023-01-13T13:39:50.736Z,95802.96
2023-01-13T13:42:47.398Z,95804.40
2023-01-13T13:45:43.115Z,95800.57
2023-01-13T13:48:29.500Z,95796.23
2023-01-13T13:51:03.610Z,95795.77
2023-01-13T13:53:39.717Z,95798.95
2023-01-13T13:56:23.465Z,95795.27
2023-01-13T13:58:53.189Z,95796.77
2023-01-13T14:01:30.327Z,95795.50
2023-01-13T14:04:10.896Z,95795.27
2023-01-13T14:06:56.266Z,95798.14
2023-01-13T14:09:28.621Z,95792.58
2023-01-13T14:12:01.535Z,95793.66
2023-01-13T14:14:30.705Z,95789.64
2023-01-13T14:17:01.625Z,95789.98
2023-01-13T14:19:33.404Z,95790.56
2023-01-13T14:22:03.918Z,95799.48
2023-01-13T14:24:33.317Z,95803.48
2023-01-13T14:27:10.774Z,95808.09
2023-01-13T14:29:39.839Z,95800.23
2023-01-13T14:32:08.927Z,95802.40
2023-01-13T14:34:38.199Z,95804.44
2023-01-13T14:37:31.765Z,95807.01
2023-01-13T14:40:00.064Z,95807.34
2023-01-13T14:42:29.951Z,95807.43
2023-01-13T14:44:58.957Z,95805.64
2023-01-13T14:47:32.444Z,95811.27
2023-01-13T14:50:23.055Z,95812.41
2023-01-13T14:52:55.786Z,95813.25
2023-01-13T14:55:37.661Z,95812.48
2023-01-13T14:58:26.587Z,95812.15
2023-01-13T15:01:27.934Z,95814.88
2023-01-13T15:04:17.139Z,95814.05
2023-01-13T15:06:51.593Z,95812.48
2023-01-13T15:09:29.741Z,95810.90
2023-01-13T15:12:23.526Z,95809.84
2023-01-13T15:14:55.209Z,95808.70
2023-01-13T15:17:24.180Z,95806.17
2023-01-13T15:19:53.990Z,95809.88
2023-01-13T15:22:22.490Z,95809.17
2023-01-13T15:24:51.357Z,95805.83
2023-01-13T15:27:26.360Z,95811.59
2023-01-13T15:29:55.822Z,95814.55
2023-01-13T15:32:24.283Z,95812.06
2023-01-13T15:34:53.893Z,95809.05
2023-01-13T15:37:23.830Z,95808.33
2023-01-13T15:39:53.224Z,95806.40
2023-01-13T15:42:40.131Z,95805.64
2023-01-13T15:45:31.882Z,95801.23
2023-01-13T15:48:00.347Z,95800.79
2023-01-13T15:50:29.546Z,95805.23
2023-01-13T15:52:57.919Z,95809.58
2023-01-13T15:55:26.518Z,95806.75
2023-01-13T15:57:56.888Z,95806.45
2023-01-13T16:00:25.613Z,95804.90
2023-01-13T16:02:54.239Z,95805.49
2023-01-13T16:05:22.715Z,95806.58
2023-01-13T16:07:51.385Z,95809.31
2023-01-13T16:10:29.094Z,95807.88
2023-01-13T16:12:57.677Z,95804.44
2023-01-13T16:15:26.301Z,95808.38
2023-01-13T16:18:03.519Z,95812.65
2023-01-13T16:20:32.169Z,95806.45
2023-01-13T16:23:00.526Z,95806.14
2023-01-13T16:25:28.694Z,95807.14
2023-01-13T16:27:57.017Z,95809.39
2023-01-13T16:30:25.474Z,95812.88
2023-01-13T16:32:55.321Z,95819.76
2023-01-13T16:35:25.841Z,95819.98
2023-01-13T16:37:58.636Z,95820.29
2023-01-13T16:40:33.662Z,95816.91
2023-01-13T16:43:03.766Z,95819.14
2023-01-13T16:45:33.121Z,95817.55
2023-01-13T16:48:02.130Z,95820.68
2023-01-13T16:50:42.258Z,95818.92
2023-01-13T16:53:12.344Z,95820.98
2023-01-13T16:55:42.312Z,95824.89
2023-01-13T16:58:19.534Z,95826.70
2023-01-13T17:00:48.444Z,95824.63
2023-01-13T17:03:17.100Z,95823.96
2023-01-13T17:05:47.898Z,95822.40
2023-01-13T17:08:18.253Z,95821.95
2023-01-13T17:10:47.250Z,95821.42
2023-01-13T17:13:19.247Z,95820.20
2023-01-13T17:15:47.687Z,95820.20
2023-01-13T17:18:16.269Z,95820.67
2023-01-13T17:20:44.662Z,95824.89
2023-01-13T17:23:13.026Z,95826.79
2023-01-13T17:25:41.229Z,95827.14
2023-01-13T17:28:09.888Z,95826.84
2023-01-13T17:30:38.400Z,95829.02
2023-01-13T17:33:06.756Z,95827.70
2023-01-13T17:35:34.927Z,95824.91
2023-01-13T17:38:04.268Z,95822.52
2023-01-13T17:40:33.123Z,95825.23
2023-01-13T17:43:01.916Z,95824.43
2023-01-13T17:45:30.369Z,95824.03
2023-01-13T17:47:59.698Z,95824.06
2023-01-13T17:50:28.402Z,95823.23
2023-01-13T17:52:56.985Z,95820.86
2023-01-13T17:55:25.360Z,95822.96
2023-01-13T17:57:54.364Z,95819.50
2023-01-13T18:00:22.832Z,95824.18
2023-01-13T18:02:51.992Z,95822.85
2023-01-13T18:05:21.234Z,95823.22
2023-01-13T18:07:50.843Z,95819.65
2023-01-13T18:10:19.444Z,95818.29
2023-01-13T18:12:48.659Z,95816.91
2023-01-13T18:15:17.414Z,95818.83
2023-01-13T18:17:47.363Z,95820.02
2023-01-13T18:20:37.830Z,95819.23
2023-01-13T18:23:25.464Z,95814.42
2023-01-13T18:26:12.686Z,95814.69
2023-01-13T18:28:40.890Z,95821.33
2023-01-13T18:31:09.617Z,95827.73
2023-01-13T18:33:38.944Z,95825.52
2023-01-13T18:36:10.698Z,95821.49
2023-01-13T18:38:39.598Z,95824.02
2023-01-13T18:41:27.859Z,95825.16
2023-01-13T18:43:56.953Z,95824.55
2023-01-13T18:46:25.300Z,95820.20
2023-01-13T18:48:53.910Z,95824.19
2023-01-13T18:51:23.320Z,95826.54
2023-01-13T18:53:51.905Z,95829.61
2023-01-13T18:56:20.592Z,95827.66
2023-01-13T18:58:52.598Z,95825.44
2023-01-13T19:01:25.953Z,95820.53
2023-01-13T19:03:56.599Z,95822.95
2023-01-13T19:06:28.364Z,95825.37
2023-01-13T19:09:00.945Z,95827.65
2023-01-13T19:11:30.742Z,95829.69
2023-01-13T19:13:59.226Z,95828.35
2023-01-13T19:16:27.811Z,95825.87
2023-01-13T19:18:56.195Z,95821.31
2023-01-13T19:21:25.831Z,95823.45
2023-01-13T19:23:56.948Z,95823.30
2023-01-13T19:26:26.355Z,95824.94
2023-01-13T19:28:55.749Z,95821.80
2023-01-13T19:31:24.317Z,95824.50
2023-01-13T19:33:52.602Z,95826.63
2023-01-13T19:36:21.928Z,95826.98
2023-01-13T19:38:50.196Z,95822.89
2023-01-13T19:41:37.939Z,95823.80
2023-01-13T19:44:25.285Z,95828.61
2023-01-13T19:46:53.637Z,95835.46
2023-01-13T19:49:22.255Z,95832.49
2023-01-13T19:51:51.027Z,95831.65
2023-01-13T19:54:19.648Z,95833.73
2023-01-13T19:56:48.080Z,95833.37
2023-01-13T19:59:22.346Z,95835.07
2023-01-13T20:01:50.743Z,95836.03
2023-01-13T20:04:26.866Z,95837.31
2023-01-13T20:06:56.969Z,95837.34
2023-01-13T20:09:25.004Z,95835.53
2023-01-13T20:11:53.941Z,95837.15
2023-01-13T20:14:24.259Z,95835.83
2023-01-13T20:16:52.482Z,95837.38
2023-01-13T20:19:21.044Z,95841.65
2023-01-13T20:21:50.019Z,95845.06
2023-01-13T20:24:18.207Z,95841.32
2023-01-13T20:26:47.295Z,95841.75
2023-01-13T20:29:15.599Z,95843.17
2023-01-13T20:31:44.041Z,95840.45
2023-01-13T20:34:13.249Z,95852.27
2023-01-13T20:36:43.695Z,95851.25
2023-01-13T20:39:18.980Z,95846.59
2023-01-13T20:42:06.592Z,95848.86
2023-01-13T20:44:35.553Z,95847.19
2023-01-13T20:47:04.281Z,95844.77
2023-01-13T20:49:36.394Z,95847.80
2023-01-13T20:52:09.765Z,95848.73
2023-01-13T20:54:39.947Z,95849.91
2023-01-13T20:57:10.777Z,95852.75
2023-01-13T20:59:39.920Z,95849.38
2023-01-13T21:02:13.637Z,95851.41
2023-01-13T21:04:43.088Z,95854.00
2023-01-13T21:07:11.972Z,95853.66
2023-01-13T21:09:40.650Z,95853.51
2023-01-13T21:12:32.230Z,95855.61
2023-01-13T21:15:20.359Z,95857.12
2023-01-13T21:18:10.269Z,95860.42
2023-01-13T21:20:39.640Z,95863.65
2023-01-13T21:23:10.771Z,95864.77
2023-01-13T21:25:40.494Z,95864.88
2023-01-13T21:28:11.970Z,95866.23
2023-01-13T21:30:40.733Z,95870.40
2023-01-13T21:33:13.619Z,95872.55
2023-01-13T21:35:41.977Z,95878.21
2023-01-13T21:38:11.458Z,95871.26
2023-01-13T21:40:39.760Z,95877.64
2023-01-13T21:43:31.431Z,95873.71
2023-01-13T21:46:18.314Z,95874.70
2023-01-13T21:48:46.433Z,95873.28
2023-01-13T21:51:14.860Z,95876.42
2023-01-13T21:53:43.293Z,95878.55
2023-01-13T21:56:11.519Z,95876.08
2023-01-13T21:58:40.355Z,95883.08
2023-01-13T22:01:12.890Z,95882.73
2023-01-13T22:04:00.557Z,95887.98
2023-01-13T22:06:29.695Z,95891.27
2023-01-13T22:09:01.204Z,95893.12
2023-01-13T22:11:29.563Z,95891.72
2023-01-13T22:14:09.638Z,95885.33
2023-01-13T22:16:42.072Z,95891.64
2023-01-13T22:19:10.987Z,95895.30
2023-01-13T22:21:40.163Z,95893.41
2023-01-13T22:24:09.081Z,95894.09
2023-01-13T22:26:37.261Z,95889.10
2023-01-13T22:29:05.832Z,95893.33
2023-01-13T22:31:34.404Z,95889.24
2023-01-13T22:34:02.630Z,95893.21
2023-01-13T22:36:30.881Z,95892.45
2023-01-13T22:39:00.874Z,95893.45
2023-01-13T22:41:29.280Z,95894.91
2023-01-13T22:43:57.554Z,95899.99
2023-01-13T22:46:25.976Z,95895.39
2023-01-13T22:48:56.033Z,95895.65
2023-01-13T22:51:24.648Z,95892.95
2023-01-13T22:53:54.276Z,95896.08
2023-01-13T22:56:24.786Z,95902.23
2023-01-13T22:58:54.989Z,95902.71
2023-01-13T23:01:24.566Z,95900.85
2023-01-13T23:03:53.559Z,95898.98
2023-01-13T23:06:23.806Z,95894.64
2023-01-13T23:08:52.832Z,95895.41
2023-01-13T23:11:24.198Z,95895.38
2023-01-13T23:14:04.407Z,95892.03
2023-01-13T23:16:35.647Z,95893.05
2023-01-13T23:19:05.814Z,95885.87
2023-01-13T23:21:37.998Z,95884.02
2023-01-13T23:24:06.697Z,95882.88
2023-01-13T23:26:35.976Z,95886.98
2023-01-13T23:29:07.146Z,95882.30
2023-01-13T23:31:35.703Z,95881.25
2023-01-13T23:34:04.097Z,95876.33
2023-01-13T23:36:32.670Z,95876.14
2023-01-13T23:39:00.855Z,95878.33
2023-01-13T23:41:29.240Z,95875.62
2023-01-13T23:43:59.708Z,95869.91
2023-01-13T23:46:29.717Z,95867.83
2023-01-13T23:48:57.951Z,95868.59
2023-01-13T23:51:27.662Z,95866.63
2023-01-13T23:53:56.330Z,95865.35
2023-01-13T23:56:27.770Z,95867.05
2023-01-13T23:58:56.280Z,95868.94
